Ana Sayfa
METAR-TAF:

METAR-TAF

Havaalanları :

Roscommon County - Blodgett Memorial Airport

Houghton Lake, Michigan, Amerika Birleşik Devletleri

Enlem: 44-21-04N, Boylam: 084-40-27W, yükseklik: 350 m

Güncel hava durumu gözlemi

Rapor saat 08:53 UTC de 41 dakika önce yapıldı.
Sakin rüzgar
Sıcaklık -4°C
Nem 74%
Basınç 1021 hPa
Görüş mesafesi: 16.1 km
1400 ft yükseklikte çok bulutlu

METAR: KHTL 290853Z AUTO 00000KT 10SM OVC014 M04/M08 A3014 RMK AO2 SLP223 T10441078 53008

Saat: 04:34 (09:34 UTC)


TAF: eksik

4.000'den fazla havaalanı için hava durumu gözlemleri ve tahminleri (METAR ve TAF raporları).

Kullanılabilir istasyonlar harita üzerinde sarı ve kırmızı noktalarla gösterilir.

İstasyonun adını görmek için fareyi noktanın üzerinde gezdirin.

Sonrasında hava gözlem ve tahminlerini görmek için tıklayın.

Haritayı değiştirmek için: yaklaştırmak için siyah artı işaretli yeşil düğmeye ve uzaklaştırmak için de eksi işaretli düğmeye hızla tıklayın; bitişik haritalar için yeşil okları kullanın.


METAR-TAF: